Map

Track Data

SID SEASON NUMBER BASIN SUBBASIN NAME ISO_TIME NATURE LAT LON WMO_WIND WMO_PRES WMO_AGENCY TRACK_TYPE DIST2LAND LANDFALL IFLAG USA_AGENCY USA_ATCF_ID USA_LAT USA_LON USA_RECORD USA_STATUS USA_WIND USA_PRES USA_SSHS USA_R34_NE USA_R34_SE USA_R34_SW USA_R34_NW USA_R50_NE USA_R50_SE USA_R50_SW USA_R50_NW USA_R64_NE USA_R64_SE USA_R64_SW USA_R64_NW USA_POCI USA_ROCI USA_RMW USA_EYE TOKYO_LAT TOKYO_LON TOKYO_GRADE TOKYO_WIND TOKYO_PRES TOKYO_R50_DIR TOKYO_R50_LONG TOKYO_R50_SHORT TOKYO_R30_DIR TOKYO_R30_LONG TOKYO_R30_SHORT TOKYO_LAND CMA_LAT CMA_LON CMA_CAT CMA_WIND CMA_PRES HKO_LAT HKO_LON HKO_CAT HKO_WIND HKO_PRES NEWDELHI_LAT NEWDELHI_LON NEWDELHI_GRADE NEWDELHI_WIND NEWDELHI_PRES NEWDELHI_CI NEWDELHI_DP NEWDELHI_POCI REUNION_LAT REUNION_LON REUNION_TYPE REUNION_WIND REUNION_PRES REUNION_TNUM REUNION_CI REUNION_RMW REUNION_R34_NE REUNION_R34_SE REUNION_R34_SW REUNION_R34_NW REUNION_R50_NE REUNION_R50_SE REUNION_R50_SW REUNION_R50_NW REUNION_R64_NE REUNION_R64_SE REUNION_R64_SW REUNION_R64_NW BOM_LAT BOM_LON BOM_TYPE BOM_WIND BOM_PRES BOM_TNUM BOM_CI BOM_RMW BOM_R34_NE BOM_R34_SE BOM_R34_SW BOM_R34_NW BOM_R50_NE BOM_R50_SE BOM_R50_SW BOM_R50_NW BOM_R64_NE BOM_R64_SE BOM_R64_SW BOM_R64_NW BOM_ROCI BOM_POCI BOM_EYE BOM_POS_METHOD BOM_PRES_METHOD NADI_LAT NADI_LON NADI_CAT NADI_WIND NADI_PRES WELLINGTON_LAT WELLINGTON_LON WELLINGTON_WIND WELLINGTON_PRES DS824_LAT DS824_LON DS824_STAGE DS824_WIND DS824_PRES TD9636_LAT TD9636_LON TD9636_STAGE TD9636_WIND TD9636_PRES TD9635_LAT TD9635_LON TD9635_WIND TD9635_PRES TD9635_ROCI NEUMANN_LAT NEUMANN_LON NEUMANN_CLASS NEUMANN_WIND NEUMANN_PRES MLC_LAT MLC_LON MLC_CLASS MLC_WIND MLC_PRES USA_GUST BOM_GUST BOM_GUST_PER REUNION_GUST REUNION_GUST_PER USA_SEAHGT USA_SEARAD_NE USA_SEARAD_SE USA_SEARAD_SW USA_SEARAD_NW STORM_SPEED STORM_DIR
1996227N08156 1996 64 WP MM NIKI 1996-08-13 12:00:00 NR 8.00000 155.800 main 1316 1265 O_____________ jtwc_wp WP181996 8.00000 155.800 15 -1 16 252
1996227N08156 1996 64 WP MM NIKI 1996-08-13 15:00:00 NR 7.76283 155.042 main 1261 1203 P_____________ WP181996 7.76283 155.042 15 -1 16 251
1996227N08156 1996 64 WP MM NIKI 1996-08-13 18:00:00 NR 7.50000 154.300 main 1203 1149 O_____________ jtwc_wp WP181996 7.50000 154.300 15 -1 16 249
1996227N08156 1996 64 WP MM NIKI 1996-08-13 21:00:00 NR 7.21226 153.572 main 1149 1107 P_____________ WP181996 7.21226 153.572 17 -1 16 251
1996227N08156 1996 64 WP MM NIKI 1996-08-14 00:00:00 NR 7.00000 152.800 main 1107 1093 O_____________ jtwc_wp WP181996 7.00000 152.800 20 -1 16 261
1996227N08156 1996 64 WP MM NIKI 1996-08-14 03:00:00 NR 6.96227 151.953 main 1093 1087 P_____________ WP181996 6.96227 151.953 20 -1 18 270
1996227N08156 1996 64 WP MM NIKI 1996-08-14 06:00:00 NR 7.00000 151.000 main 1087 1056 O_____________ jtwc_wp WP181996 7.00000 151.000 20 -1 21 272
1996227N08156 1996 64 WP MM NIKI 1996-08-14 09:00:00 NR 7.03773 149.885 main 1056 1033 P_____________ WP181996 7.03773 149.885 20 -1 22 270
1996227N08156 1996 64 WP MM NIKI 1996-08-14 12:00:00 NR 7.00000 148.800 main 1031 999 O_____________ jtwc_wp WP181996 7.00000 148.800 20 -1 19 261
1996227N08156 1996 64 WP MM NIKI 1996-08-14 15:00:00 NR 6.74946 147.985 main 988 963 P_____________ WP181996 6.74946 147.985 20 -1 17 253
1996227N08156 1996 64 WP MM NIKI 1996-08-14 18:00:00 NR 6.50000 147.200 main 963 952 O_____________ jtwc_wp WP181996 6.50000 147.200 20 -1 18 260
1996227N08156 1996 64 WP MM NIKI 1996-08-14 21:00:00 NR 6.44755 146.215 main 953 953 P_____________ WP181996 6.44755 146.215 20 -1 20 270
1996227N08156 1996 64 WP MM NIKI 1996-08-15 00:00:00 NR 6.50000 145.200 main 976 976 O_____________ jtwc_wp WP181996 6.50000 145.200 20 -1 20 274
1996227N08156 1996 64 WP MM NIKI 1996-08-15 03:00:00 NR 6.57740 144.255 main 1007 1007 P_____________ WP181996 6.57740 144.255 20 -1 18 276
1996227N08156 1996 64 WP MM NIKI 1996-08-15 06:00:00 NR 6.70000 143.400 main 1048 1048 O_____________ jtwc_wp WP181996 6.70000 143.400 20 -1 16 279
1996227N08156 1996 64 WP MM NIKI 1996-08-15 09:00:00 NR 6.83472 142.677 main 1061 1049 P_____________ WP181996 6.83472 142.677 20 -1 14 282
1996227N08156 1996 64 WP MM NIKI 1996-08-15 12:00:00 NR 7.00000 142.000 main 1052 1037 O_____________ jtwc_wp WP181996 7.00000 142.000 20 -1 15 284
1996227N08156 1996 64 WP MM NIKI 1996-08-15 15:00:00 NR 7.18491 141.257 main 1044 1034 P_____________ WP181996 7.18491 141.257 20 -1 15 285
1996227N08156 1996 64 WP MM NIKI 1996-08-15 18:00:00 NR 7.40000 140.500 main 1040 1035 O_____________ jtwc_wp WP181996 7.40000 140.500 20 -1 16 287
1996227N08156 1996 64 WP MM NIKI 1996-08-15 21:00:00 NR 7.63487 139.750 main 1031 1030 P_____________ WP181996 7.63487 139.750 20 -1 16 289
1996227N08156 1996 64 WP MM NIKI 1996-08-16 00:00:00 NR 7.90000 139.000 main 1033 1026 O_____________ jtwc_wp WP181996 7.90000 139.000 20 -1 16 288
1996227N08156 1996 64 WP MM NIKI 1996-08-16 03:00:00 NR 8.12488 138.249 main 1027 1027 P_____________ WP181996 8.12488 138.249 20 -1 16 292
1996227N08156 1996 64 WP MM NIKI 1996-08-16 06:00:00 NR 8.50000 137.500 main 1052 1052 O_____________ jtwc_wp WP181996 8.50000 137.500 20 -1 19 304
1996227N08156 1996 64 WP MM NIKI 1996-08-16 09:00:00 NR 9.15271 136.690 main 1116 1062 P_____________ WP181996 9.15271 136.690 17 -1 21 315
1996227N08156 1996 64 WP MM NIKI 1996-08-16 12:00:00 NR 10.0000 136.000 main 1065 1041 O_____________ jtwc_wp WP181996 10.0000 136.000 15 -1 21 328
1996227N08156 1996 64 WP MM NIKI 1996-08-16 15:00:00 NR 10.9422 135.575 main 1046 1034 P_____________ WP181996 10.9422 135.575 20 -1 20 340
1996227N08156 1996 64 WP MM NIKI 1996-08-16 18:00:00 NR 11.9000 135.300 main 1040 1025 O_____________ jtwc_wp WP181996 11.9000 135.300 25 -1 19 344
1996227N08156 1996 64 WP MM NIKI 1996-08-16 21:00:00 NR 12.7524 135.042 main 1021 1021 P_____________ WP181996 12.7524 135.042 22 -1 20 347
1996227N08156 1996 64 WP MM NIKI 1996-08-17 00:00:00 TS 13.8200 134.860 1006 tokyo main 1034 1015 OO____________ jtwc_wp WP181996 13.5000 134.800 20 -1 15.1000 135.100 2 1006 0 0 0 19 345
1996227N08156 1996 64 WP MM NIKI 1996-08-17 03:00:00 TS 14.5292 134.544 main 1007 991 PP____________ WP181996 14.1449 134.530 22 -1 15.2980 134.573 2 1006 0 0 14 332
1996227N08156 1996 64 WP MM NIKI 1996-08-17 06:00:00 TS 15.0000 134.200 1006 tokyo main 991 971 OO____________ jtwc_wp WP181996 14.7000 134.200 25 -1 15.4000 134.200 2 1006 0 0 0 10 322
1996227N08156 1996 64 WP MM NIKI 1996-08-17 09:00:00 TS 15.3035 133.926 main 971 949 PP____________ WP181996 15.2374 133.795 25 -1 15.3697 134.057 2 1006 0 0 8 314
1996227N08156 1996 64 WP MM NIKI 1996-08-17 12:00:00 TS 15.5500 133.600 1006 tokyo main 953 923 OO____________ jtwc_wp WP181996 15.7000 133.300 25 -1 15.4000 133.900 2 1006 0 0 0 9 306
1996227N08156 1996 64 WP MM NIKI 1996-08-17 15:00:00 TS 15.8584 133.132 main 918 877 PP____________ WP181996 16.0649 132.730 22 -1 15.6519 133.534 2 1006 0 0 13 303
1996227N08156 1996 64 WP MM NIKI 1996-08-17 18:00:00 TS 16.2500 132.500 1006 tokyo main 883 843 OO____________ jtwc_wp WP181996 16.4000 132.100 20 -1 16.1000 132.900 2 1006 0 0 0 17 304
1996227N08156 1996 64 WP MM NIKI 1996-08-17 21:00:00 TS 16.7942 131.681 main 843 784 PP____________ WP181996 16.8222 131.473 25 -1 16.7661 131.889 2 1006 0 0 19 303
1996227N08156 1996 64 WP MM NIKI 1996-08-18 00:00:00 TS 17.3000 130.800 1006 tokyo main 784 737 OOO___________ jtwc_wp WP181996 17.2000 130.800 30 -1 17.4000 130.800 2 1006 0 0 0 17.3000 130.800 1 23 1004 18 297
1996227N08156 1996 64 WP MM NIKI 1996-08-18 03:00:00 TS 17.6079 130.026 main 728 683 PPP___________ WP181996 17.4525 130.050 32 -1 17.7619 129.974 2 1005 0 0 17.6106 130.081 1 26 1003 15 288
1996227N08156 1996 64 WP MM NIKI 1996-08-18 06:00:00 TS 17.7417 129.342 35 1004 tokyo main 675 634 OOOO__________ jtwc_wp WP181996 17.6000 129.300 35 0 17.9000 129.300 3 35 1004 0 9 90 90 0 17.8000 129.400 1 29 1002 17.5000 129.500 TD 25 1000 12 276
1996227N08156 1996 64 WP MM NIKI 1996-08-18 09:00:00 TS 17.7440 128.728 main 626 587 PPPP__________ WP181996 17.6872 128.627 35 0 17.8518 128.750 3 35 1004 0 9 90 90 17.7947 128.785 1 29 1002 17.5407 128.773 TD 27 999 12 266
1996227N08156 1996 64 WP MM NIKI 1996-08-18 12:00:00 TS 17.6600 128.127 35 1004 tokyo main 580 528 OOOO__________ jtwc_wp WP181996 17.7000 128.000 35 0 17.7000 128.200 3 35 1004 0 9 90 90 0 17.7000 128.200 1 29 1002 17.5000 128.100 TD 30 998 12 261
1996227N08156 1996 64 WP MM NIKI 1996-08-18 15:00:00 TS 17.5660 127.495 main 528 470 PPPP__________ WP181996 17.6647 127.400 35 0 17.6077 127.465 3 35 1002 0 9 95 95 17.6497 127.608 1 29 1001 17.3420 127.507 TD 30 998 12 261
1996227N08156 1996 64 WP MM NIKI 1996-08-18 18:00:00 TS 17.4750 126.850 35 1000 tokyo main 470 395 OOOO__________ jtwc_wp WP181996 17.6000 126.800 35 0 17.5000 126.700 3 35 1000 0 9 100 100 0 17.6000 127.000 1 29 1000 17.2000 126.900 TD 30 998 13 263
1996227N08156 1996 64 WP MM NIKI 1996-08-18 21:00:00 TS 17.4081 126.166 main 395 321 PPPP__________ WP181996 17.5424 126.157 35 0 17.3198 126.012 3 35 998 0 9 100 100 17.5499 126.358 1 31 998 17.2203 126.135 TD 30 998 13 266
1996227N08156 1996 64 WP MM NIKI 1996-08-19 00:00:00 TS 17.3750 125.500 35 996 tokyo main 321 258 OOOO__________ jtwc_wp WP181996 17.5000 125.500 35 0 17.2000 125.400 3 35 996 0 9 100 100 0 17.5000 125.700 2 34 996 17.3000 125.400 TD 30 998 12 269
1996227N08156 1996 64 WP MM NIKI 1996-08-19 03:00:00 TS 17.3828 124.912 main 258 206 PPPP__________ WP181996 17.4849 124.835 40 0 17.2696 124.885 3 40 993 0 9 100 100 17.4349 125.035 2 36 994 17.3418 124.892 TD 35 996 11 273
1996227N08156 1996 64 WP MM NIKI 1996-08-19 06:00:00 TS 17.4250 124.350 45 990 tokyo main 206 148 OOOO__________ jtwc_wp WP181996 17.5000 124.200 45 0 17.4000 124.400 3 45 990 0 9 100 100 0 17.4000 124.400 2 38 992 17.4000 124.400 TS 40 994 11 275
1996227N08156 1996 64 WP MM NIKI 1996-08-19 09:00:00 TS 17.4851 123.798 main 148 87 PPPP__________ WP181996 17.5494 123.665 50 0 17.4569 123.910 3 47 987 0 9 100 100 17.4342 123.888 2 41 991 17.5000 123.730 TS 40 994 11 276
1996227N08156 1996 64 WP MM NIKI 1996-08-19 12:00:00 TS 17.5500 123.175 50 985 tokyo main 91 30 OOOO__________ jtwc_wp WP181996 17.6000 123.100 55 0 17.5000 123.300 4 50 985 0 9 100 100 0 17.5000 123.300 2 44 990 17.6000 123.000 TS 40 994 13 275
1996227N08156 1996 64 WP MM NIKI 1996-08-19 15:00:00 TS 17.5969 122.396 main 30 0 PPPP__________ WP181996 17.6149 122.388 57 0 17.5577 122.453 4 50 985 0 9 100 100 17.5579 122.438 2 44 990 17.6572 122.307 TS 42 992 16 273
1996227N08156 1996 64 WP MM NIKI 1996-08-19 18:00:00 TS 17.6250 121.550 50 985 tokyo main 0 0 OOOO__________ jtwc_wp WP181996 17.6000 121.600 60 0 17.6000 121.500 4 50 985 0 9 100 100 0 17.6000 121.500 2 44 990 17.7000 121.600 TS 45 990 16 272
1996227N08156 1996 64 WP MM NIKI 1996-08-19 21:00:00 TS 17.6454 120.732 main 0 0 PPPP__________ WP181996 17.5573 120.807 57 0 17.6299 120.578 4 50 985 0 9 100 100 17.6295 120.685 2 46 987 17.7648 120.858 TS 45 990 15 270
1996227N08156 1996 64 WP MM NIKI 1996-08-20 00:00:00 TS 17.6250 119.925 50 985 tokyo main 42 42 OOOO__________ jtwc_wp WP181996 17.5000 120.000 55 0 17.6000 119.700 4 50 985 0 9 100 100 0 17.6000 119.900 3 48 985 17.8000 120.100 TS 45 990 15 266
1996227N08156 1996 64 WP MM NIKI 1996-08-20 03:00:00 TS 17.5378 119.142 main 127 127 PPPP__________ WP181996 17.4497 119.200 60 0 17.4644 118.927 4 50 985 0 9 100 100 17.4648 119.092 3 48 985 17.7722 119.350 TS 45 990 15 262
1996227N08156 1996 64 WP MM NIKI 1996-08-20 06:00:00 TS 17.4250 118.375 50 985 tokyo main 193 193 OOOO__________ jtwc_wp WP181996 17.4000 118.400 65 1 17.3000 118.200 4 50 985 0 9 100 100 0 17.3000 118.300 3 48 985 17.7000 118.600 TS 45 990 15 262
1996227N08156 1996 64 WP MM NIKI 1996-08-20 09:00:00 TS 17.3242 117.596 main 259 259 PPPP__________ WP181996 17.3498 117.593 70 1 17.1700 117.427 4 52 982 0 9 125 125 17.1774 117.513 3 48 985 17.5997 117.850 TS 47 987 15 263
1996227N08156 1996 64 WP MM NIKI 1996-08-20 12:00:00 TS 17.2500 116.850 55 980 tokyo main 328 324 OOOO__________ jtwc_wp WP181996 17.3000 116.800 75 1 17.1000 116.700 4 55 980 9 50 50 9 150 150 0 17.1000 116.800 3 48 985 17.5000 117.100 STS 50 985 14 265
1996227N08156 1996 64 WP MM NIKI 1996-08-20 15:00:00 TS 17.2165 116.174 main 396 396 PPPP__________ WP181996 17.2423 116.027 77 1 17.1272 116.070 4 55 980 9 50 50 9 165 165 17.0693 116.250 3 53 982 17.4272 116.350 STS 52 982 13 269
1996227N08156 1996 64 WP MM NIKI 1996-08-20 18:00:00 TS 17.2250 115.525 55 980 tokyo main 467 467 OOOO__________ jtwc_wp WP181996 17.2000 115.300 80 1 17.2000 115.500 4 55 980 9 50 50 9 180 180 0 17.1000 115.700 3 58 980 17.4000 115.600 STS 55 980 13 272
1996227N08156 1996 64 WP MM NIKI 1996-08-20 21:00:00 TS 17.2597 114.861 main 485 424 PPPP__________ WP181996 17.1771 114.635 82 1 17.2419 114.987 4 57 977 9 55 55 9 180 180 17.1850 114.980 3 58 980 17.4348 114.843 STS 57 977 13 274
1996227N08156 1996 64 WP MM NIKI 1996-08-21 00:00:00 TS 17.3250 114.175 60 975 tokyo main 424 353 OOOO__________ jtwc_wp WP181996 17.2000 114.000 85 2 17.3000 114.400 4 60 975 9 60 60 9 180 180 0 17.3000 114.200 3 58 980 17.5000 114.100 STS 60 975 14 276
1996227N08156 1996 64 WP MM NIKI 1996-08-21 03:00:00 TS 17.3975 113.430 main 344 274 PPPP__________ WP181996 17.2698 113.350 87 2 17.3856 113.558 4 62 972 9 65 65 9 215 215 17.3925 113.427 3 61 977 17.5423 113.385 STS 62 972 14 277
1996227N08156 1996 64 WP MM NIKI 1996-08-21 06:00:00 TS 17.5000 112.700 65 970 tokyo main 274 215 OOOO__________ jtwc_wp WP181996 17.4000 112.700 90 2 17.5000 112.700 5 65 970 9 70 70 9 250 250 0 17.5000 112.700 4 64 975 17.6000 112.700 T 65 970 13 280
1996227N08156 1996 64 WP MM NIKI 1996-08-21 09:00:00 TS 17.6366 112.052 main 215 153 PPPP__________ WP181996 17.5924 112.035 90 2 17.6344 112.070 5 65 970 9 70 70 9 250 250 17.6347 112.070 4 64 975 17.6848 112.035 T 65 970 12 284
1996227N08156 1996 64 WP MM NIKI 1996-08-21 12:00:00 TS 17.8000 111.450 65 970 tokyo main 153 94 OOOO__________ jtwc_wp WP181996 17.8000 111.400 90 2 17.8000 111.500 5 65 970 9 70 70 9 250 250 0 17.8000 111.500 4 64 975 17.8000 111.400 T 65 970 12 286
1996227N08156 1996 64 WP MM NIKI 1996-08-21 15:00:00 TS 17.9711 110.853 main 94 46 PPPP__________ WP181996 17.9497 110.835 92 2 17.9998 110.865 5 65 970 9 70 70 9 250 250 17.9998 110.935 4 66 972 17.9349 110.777 T 65 970 12 287
1996227N08156 1996 64 WP MM NIKI 1996-08-21 18:00:00 TS 18.1500 110.275 65 970 tokyo main 38 0 OOOO__________ jtwc_wp WP181996 18.1000 110.300 95 2 18.2000 110.200 5 65 970 9 70 70 9 250 250 0 18.2000 110.400 4 68 970 18.1000 110.200 T 65 970 11 288
1996227N08156 1996 64 WP MM NIKI 1996-08-21 21:00:00 TS 18.3173 109.707 main 0 0 PPPP__________ WP181996 18.2849 109.742 90 2 18.3502 109.470 5 65 970 9 70 70 9 250 250 18.3495 109.922 4 63 972 18.2847 109.692 T 62 972 11 288
1996227N08156 1996 64 WP MM NIKI 1996-08-22 00:00:00 TS 18.5000 109.150 65 970 tokyo main 0 0 OOOO__________ jtwc_wp WP181996 18.5000 109.200 85 2 18.5000 108.800 5 65 970 9 70 70 9 250 250 0 18.5000 109.400 3 58 975 18.5000 109.200 STS 60 975 11 290
1996227N08156 1996 64 WP MM NIKI 1996-08-22 03:00:00 TS 18.7099 108.596 main 10 10 PPPP__________ WP181996 18.7347 108.700 82 1 18.6920 108.320 5 65 970 9 67 67 9 215 215 18.6778 108.707 3 58 975 18.7349 108.657 STS 60 975 11 293
1996227N08156 1996 64 WP MM NIKI 1996-08-22 06:00:00 TS 18.9500 108.050 65 970 tokyo main 62 63 OOOO__________ jtwc_wp WP181996 19.0000 108.200 80 1 18.9000 107.900 5 65 970 9 65 65 9 180 180 0 18.9000 108.000 3 58 975 19.0000 108.100 STS 60 975 11 297
1996227N08156 1996 64 WP MM NIKI 1996-08-22 09:00:00 TS 19.2208 107.533 main 116 94 PPPP__________ WP181996 19.2924 107.657 77 1 19.0846 107.437 5 62 972 9 62 62 9 170 170 19.1918 107.457 3 58 977 19.3145 107.580 STS 60 975 12 298
1996227N08156 1996 64 WP MM NIKI 1996-08-22 12:00:00 TS 19.5000 106.975 60 975 tokyo main 94 30 OOOO__________ jtwc_wp WP181996 19.6000 107.100 75 1 19.3000 106.900 4 60 975 9 60 60 9 160 160 0 19.5000 106.900 3 58 980 19.6000 107.000 STS 60 975 13 296
1996227N08156 1996 64 WP MM NIKI 1996-08-22 15:00:00 TS 19.7855 106.321 main 24 0 PPPP__________ WP181996 19.9148 106.550 70 1 19.6299 106.246 4 57 977 9 55 55 9 155 155 19.7948 106.195 3 53 982 19.8023 106.295 STS 60 975 14 292
1996227N08156 1996 64 WP MM NIKI 1996-08-22 18:00:00 TS 20.0071 105.621 55 980 tokyo main 0 0 OOOO__________ jtwc_wp WP181996 20.2000 106.000 65 1 19.9000 105.500 4 55 980 9 50 50 9 150 150 0 20.0000 105.400 3 48 985 19.9000 105.500 STS 60 975 14 284
1996227N08156 1996 64 WP MM NIKI 1996-08-22 21:00:00 TS 20.1035 104.919 main 0 0 PPPP__________ WP181996 20.4299 105.442 55 0 19.9149 104.706 4 50 985 9 9 150 150 20.0483 104.560 3 43 987 19.8833 104.660 STS 50 982 13 278
1996227N08156 1996 64 WP MM NIKI 1996-08-23 00:00:00 TS 20.1800 104.270 45 990 tokyo main 0 0 OOOO__________ jtwc_wp WP181996 20.6000 104.900 45 0 19.9000 103.900 3 45 990 0 9 150 150 0 20.0000 103.700 2 38 990 19.8000 103.800 TS 40 990 11 285
1996227N08156 1996 64 WP MM NIKI 1996-08-23 03:00:00 TS 20.3960 103.760 main 0 0 PP____________ WP181996 20.7300 104.370 37 0 20.0620 103.150 3 994 0 9 2 TS 11 289
1996227N08156 1996 64 WP MM NIKI 1996-08-23 06:00:00 TS 20.5500 103.150 998 tokyo main 0 0 OO____________ jtwc_wp WP181996 20.8000 103.900 30 -1 20.3000 102.400 2 998 0 0 0 12 284
1996227N08156 1996 64 WP MM NIKI 1996-08-23 09:00:00 TS 20.6830 102.568 main 0 0 PP____________ WP181996 20.8150 103.522 25 -1 20.5509 101.613 2 999 0 0 11 283
1996227N08156 1996 64 WP MM NIKI 1996-08-23 12:00:00 TS 20.8000 102.000 1000 tokyo main 0 OO____________ jtwc_wp WP181996 20.8000 103.200 20 -1 20.8000 100.800 2 1000 0 0 0 11 282

Digital Typhoon Data and Search

About IBTrACS Database

This database is a web-friendly format of International Best Track Archive for Climate Stewardship (IBTrACS), a global best track data archive curated by NOAA dating back to 1842.

Updated: 2021-10-08